createdAt,value
2018-11-12T00:00:47.962Z,53.04
2018-11-12T00:03:20.183Z,53.41
2018-11-12T00:05:52.472Z,53.31
2018-11-12T00:08:24.764Z,53.57
2018-11-12T00:10:57.266Z,53.55
2018-11-12T00:13:29.354Z,53.26
2018-11-12T00:16:01.682Z,53.72
2018-11-12T00:18:33.911Z,52.95
2018-11-12T00:21:06.436Z,53.79
2018-11-12T00:23:38.568Z,53.16
2018-11-12T00:26:10.758Z,52.89
2018-11-12T00:28:42.600Z,53.54
2018-11-12T00:31:15.032Z,52.97
2018-11-12T00:33:47.052Z,53.36
2018-11-12T00:36:18.844Z,52.60
2018-11-12T00:38:51.046Z,53.22
2018-11-12T00:41:23.053Z,53.09
2018-11-12T00:43:54.792Z,53.42
2018-11-12T00:46:26.909Z,53.11
2018-11-12T00:48:59.051Z,52.69
2018-11-12T00:51:31.710Z,52.98
2018-11-12T00:54:03.866Z,52.62
2018-11-12T00:56:36.106Z,52.37
2018-11-12T00:59:07.732Z,53.00
2018-11-12T01:01:40.131Z,53.25
2018-11-12T01:04:12.376Z,53.36
2018-11-12T01:06:44.728Z,53.36
2018-11-12T01:09:16.829Z,52.69
2018-11-12T01:11:49.724Z,53.46
2018-11-12T01:14:22.157Z,52.88
2018-11-12T01:16:54.478Z,52.86
2018-11-12T01:19:26.578Z,53.55
2018-11-12T01:21:58.927Z,53.17
2018-11-12T01:24:31.010Z,53.32
2018-11-12T01:27:03.206Z,53.19
2018-11-12T01:29:35.424Z,52.71
2018-11-12T01:32:07.360Z,52.94
2018-11-12T01:34:39.485Z,53.10
2018-11-12T01:37:11.438Z,53.07
2018-11-12T01:39:43.692Z,53.14
2018-11-12T01:42:15.707Z,53.91
2018-11-12T01:44:47.810Z,53.61
2018-11-12T01:47:19.763Z,53.72
2018-11-12T01:49:51.640Z,52.98
2018-11-12T01:52:24.346Z,53.17
2018-11-12T01:54:56.667Z,53.36
2018-11-12T01:57:28.854Z,52.79
2018-11-12T02:00:00.905Z,53.10
2018-11-12T02:02:33.141Z,52.80
2018-11-12T02:05:05.388Z,53.94
2018-11-12T02:07:37.566Z,53.81
2018-11-12T02:10:11.086Z,53.82
2018-11-12T02:12:43.692Z,53.57
2018-11-12T02:15:17.274Z,53.03
2018-11-12T02:17:50.112Z,53.57
2018-11-12T02:20:22.713Z,53.74
2018-11-12T02:22:55.283Z,53.24
2018-11-12T02:25:27.341Z,53.33
2018-11-12T02:27:59.704Z,53.77
2018-11-12T02:30:36.516Z,54.32
2018-11-12T02:33:08.357Z,53.41
2018-11-12T02:35:40.559Z,53.18
2018-11-12T02:38:12.736Z,53.71
2018-11-12T02:40:44.808Z,54.10
2018-11-12T02:43:17.115Z,53.19
2018-11-12T02:45:48.994Z,53.50
2018-11-12T02:48:21.249Z,53.85
2018-11-12T02:50:53.971Z,53.53
2018-11-12T02:53:26.634Z,53.00
2018-11-12T02:55:58.666Z,53.06
2018-11-12T02:58:30.875Z,53.31
2018-11-12T03:01:02.978Z,53.02
2018-11-12T03:03:35.453Z,52.95
2018-11-12T03:06:07.558Z,52.99
2018-11-12T03:08:39.728Z,53.51
2018-11-12T03:11:11.609Z,53.63
2018-11-12T03:13:44.022Z,53.40
2018-11-12T03:16:16.208Z,53.43
2018-11-12T03:18:48.474Z,52.87
2018-11-12T03:21:20.497Z,52.81
2018-11-12T03:23:53.258Z,52.57
2018-11-12T03:26:25.163Z,52.71
2018-11-12T03:28:57.200Z,52.66
2018-11-12T03:31:29.472Z,52.87
2018-11-12T03:34:01.417Z,52.97
2018-11-12T03:36:33.469Z,52.52
2018-11-12T03:39:05.999Z,52.89
2018-11-12T03:41:38.011Z,52.50
2018-11-12T03:44:19.782Z,53.00
2018-11-12T03:46:51.795Z,52.83
2018-11-12T03:49:23.847Z,53.18
2018-11-12T03:51:55.850Z,52.05
2018-11-12T03:54:28.541Z,52.57
2018-11-12T03:57:00.574Z,52.70
2018-11-12T03:59:32.529Z,52.03
2018-11-12T04:02:04.727Z,52.10
2018-11-12T04:04:36.847Z,51.97
2018-11-12T04:07:08.690Z,51.95
2018-11-12T04:09:40.764Z,52.46
2018-11-12T04:12:12.859Z,52.04
2018-11-12T04:14:45.882Z,51.34
2018-11-12T04:17:18.033Z,51.74
2018-11-12T04:19:50.343Z,52.05
2018-11-12T04:22:22.339Z,51.43
2018-11-12T04:24:55.291Z,51.77
2018-11-12T04:27:27.614Z,51.54
2018-11-12T04:29:59.721Z,51.06
2018-11-12T04:32:31.853Z,50.91
2018-11-12T04:35:04.133Z,50.86
2018-11-12T04:37:36.227Z,51.45
2018-11-12T04:40:09.067Z,51.06
2018-11-12T04:42:41.535Z,51.59
2018-11-12T04:45:15.901Z,51.47
2018-11-12T04:47:48.605Z,50.97
2018-11-12T04:50:23.121Z,51.40
2018-11-12T04:52:55.465Z,51.64
2018-11-12T04:55:28.109Z,51.04
2018-11-12T04:58:00.010Z,51.21
2018-11-12T05:00:32.021Z,51.11
2018-11-12T05:03:04.050Z,51.44
2018-11-12T05:05:36.317Z,50.79
2018-11-12T05:08:08.153Z,50.71
2018-11-12T05:10:40.390Z,51.06
2018-11-12T05:13:12.335Z,50.60
2018-11-12T05:15:44.583Z,50.58
2018-11-12T05:18:16.638Z,50.93
2018-11-12T05:20:48.940Z,51.00
2018-11-12T05:23:20.690Z,50.37
2018-11-12T05:25:53.399Z,50.81
2018-11-12T05:28:26.089Z,50.19
2018-11-12T05:30:58.372Z,50.78
2018-11-12T05:33:30.410Z,50.56
2018-11-12T05:36:02.599Z,50.56
2018-11-12T05:38:34.738Z,50.36
2018-11-12T05:41:06.966Z,49.99
2018-11-12T05:43:38.955Z,50.24
2018-11-12T05:46:10.968Z,50.19
2018-11-12T05:48:43.113Z,50.17
2018-11-12T05:51:15.624Z,49.51
2018-11-12T05:53:47.765Z,49.23
2018-11-12T05:56:20.263Z,49.26
2018-11-12T05:58:52.285Z,49.78
2018-11-12T06:01:24.688Z,48.96
2018-11-12T06:03:56.775Z,49.62
2018-11-12T06:06:28.668Z,49.71
2018-11-12T06:09:02.730Z,48.75
2018-11-12T06:11:35.170Z,49.03
2018-11-12T06:14:07.491Z,49.03
2018-11-12T06:16:39.582Z,48.82
2018-11-12T06:19:11.714Z,48.81
2018-11-12T06:21:43.904Z,48.17
2018-11-12T06:24:15.888Z,47.91
2018-11-12T06:26:48.453Z,48.72
2018-11-12T06:29:20.556Z,48.25
2018-11-12T06:31:52.849Z,48.09
2018-11-12T06:34:24.548Z,48.15
2018-11-12T06:36:57.167Z,47.83
2018-11-12T06:39:29.318Z,47.82
2018-11-12T06:42:01.302Z,48.07
2018-11-12T06:44:33.186Z,48.67
2018-11-12T06:47:05.338Z,47.54
2018-11-12T06:49:37.456Z,48.28
2018-11-12T06:52:09.737Z,47.99
2018-11-12T06:54:41.506Z,47.81
2018-11-12T06:57:14.041Z,48.43
2018-11-12T06:59:46.032Z,48.36
2018-11-12T07:02:17.862Z,48.34
2018-11-12T07:04:49.741Z,47.95
2018-11-12T07:07:21.818Z,48.72
2018-11-12T07:09:54.868Z,48.34
2018-11-12T07:12:27.382Z,48.04
2018-11-12T07:15:15.660Z,47.90
2018-11-12T07:18:03.286Z,47.23
2018-11-12T07:20:52.652Z,47.88
2018-11-12T07:23:24.875Z,47.49
2018-11-12T07:25:56.831Z,47.81
2018-11-12T07:28:29.367Z,48.39
2018-11-12T07:31:01.589Z,48.34
2018-11-12T07:33:33.427Z,47.92
2018-11-12T07:36:05.334Z,47.81
2018-11-12T07:38:37.438Z,47.95
2018-11-12T07:41:09.391Z,48.57
2018-11-12T07:43:41.538Z,48.43
2018-11-12T07:46:17.518Z,48.08
2018-11-12T07:48:49.684Z,47.75
2018-11-12T07:51:21.941Z,48.61
2018-11-12T07:53:53.830Z,48.46
2018-11-12T07:56:26.106Z,47.97
2018-11-12T07:58:58.823Z,47.86
2018-11-12T08:01:31.156Z,47.54
2018-11-12T08:04:03.311Z,47.50
2018-11-12T08:06:35.224Z,47.18
2018-11-12T08:09:08.538Z,48.22
2018-11-12T08:11:41.048Z,47.81
2018-11-12T08:14:13.424Z,47.08
2018-11-12T08:16:45.897Z,46.69
2018-11-12T08:19:18.050Z,46.68
2018-11-12T08:21:50.152Z,46.83
2018-11-12T08:24:22.550Z,46.85
2018-11-12T08:26:54.689Z,46.49
2018-11-12T08:29:27.079Z,46.83
2018-11-12T08:31:59.258Z,47.16
2018-11-12T08:34:31.193Z,47.34
2018-11-12T08:37:03.659Z,47.18
2018-11-12T08:39:35.804Z,47.48
2018-11-12T08:42:07.854Z,47.10
2018-11-12T08:44:39.904Z,47.05
2018-11-12T08:47:11.963Z,46.86
2018-11-12T08:49:44.092Z,46.88
2018-11-12T08:52:16.390Z,47.45
2018-11-12T08:54:48.562Z,46.79
2018-11-12T08:57:20.615Z,46.78
2018-11-12T08:59:53.333Z,46.60
2018-11-12T09:02:25.365Z,46.57
2018-11-12T09:04:57.688Z,46.66
2018-11-12T09:07:29.611Z,46.82
2018-11-12T09:10:01.516Z,46.67
2018-11-12T09:12:34.068Z,46.99
2018-11-12T09:15:06.101Z,46.80
2018-11-12T09:17:38.735Z,47.53
2018-11-12T09:20:12.975Z,47.54
2018-11-12T09:22:44.977Z,47.62
2018-11-12T09:25:18.177Z,46.96
2018-11-12T09:27:50.438Z,47.43
2018-11-12T09:30:24.468Z,47.03
2018-11-12T09:32:56.791Z,47.01
2018-11-12T09:35:30.172Z,47.06
2018-11-12T09:38:03.393Z,47.04
2018-11-12T09:40:38.487Z,47.02
2018-11-12T09:43:10.547Z,47.39
2018-11-12T09:45:42.830Z,47.28
2018-11-12T09:48:14.843Z,47.29
2018-11-12T09:50:46.824Z,47.19
2018-11-12T09:53:18.728Z,46.97
2018-11-12T09:55:50.934Z,47.32
2018-11-12T09:58:22.934Z,47.31
2018-11-12T10:00:56.499Z,47.32
2018-11-12T10:03:30.524Z,46.79
2018-11-12T10:06:03.268Z,47.70
2018-11-12T10:08:38.526Z,46.95
2018-11-12T10:11:11.321Z,47.08
2018-11-12T10:13:43.050Z,47.39
2018-11-12T10:16:15.977Z,46.80
2018-11-12T10:18:45.721Z,47.51
2018-11-12T10:21:17.923Z,47.42
2018-11-12T10:23:50.096Z,46.55
2018-11-12T10:26:22.527Z,47.42
2018-11-12T10:28:54.536Z,47.31
2018-11-12T10:31:27.488Z,47.33
2018-11-12T10:33:59.310Z,46.63
2018-11-12T10:36:31.558Z,46.35
2018-11-12T10:39:03.649Z,46.87
2018-11-12T10:41:35.528Z,46.71
2018-11-12T10:44:09.718Z,47.12
2018-11-12T10:46:43.391Z,47.04
2018-11-12T10:49:17.964Z,47.68
2018-11-12T10:51:50.607Z,47.05
2018-11-12T10:54:22.782Z,47.27
2018-11-12T10:56:54.949Z,47.79
2018-11-12T10:59:27.024Z,47.91
2018-11-12T11:02:03.953Z,47.89
2018-11-12T11:04:36.017Z,48.30
2018-11-12T11:07:08.347Z,48.32
2018-11-12T11:09:40.055Z,48.25
2018-11-12T11:12:12.413Z,48.31
2018-11-12T11:14:44.516Z,49.04
2018-11-12T11:17:17.353Z,49.20
2018-11-12T11:19:49.466Z,49.69
2018-11-12T11:22:21.799Z,49.82
2018-11-12T11:24:53.963Z,49.17
2018-11-12T11:27:26.527Z,49.98
2018-11-12T11:29:58.571Z,49.92
2018-11-12T11:32:31.325Z,49.53
2018-11-12T11:35:03.236Z,49.61
2018-11-12T11:37:35.422Z,50.45
2018-11-12T11:40:10.343Z,50.54
2018-11-12T11:42:42.644Z,49.62
2018-11-12T11:45:15.438Z,49.82
2018-11-12T11:47:48.546Z,50.11
2018-11-12T11:50:22.007Z,50.69
2018-11-12T11:52:54.303Z,50.41
2018-11-12T11:55:26.639Z,50.40
2018-11-12T11:57:58.856Z,50.86
2018-11-12T12:00:31.252Z,50.78
2018-11-12T12:03:03.790Z,50.54
2018-11-12T12:05:35.991Z,50.76
2018-11-12T13:08:04.883Z,50.90
2018-11-12T13:10:38.239Z,50.61
2018-11-12T13:13:11.015Z,51.32
2018-11-12T13:15:42.732Z,51.61
2018-11-12T13:18:14.512Z,51.78
2018-11-12T13:20:46.818Z,51.84
2018-11-12T13:23:19.117Z,51.09
2018-11-12T13:25:51.780Z,51.20
2018-11-12T13:28:23.532Z,51.03
2018-11-12T13:30:55.251Z,51.32
2018-11-12T13:33:27.173Z,51.42
2018-11-12T13:35:59.195Z,51.27
2018-11-12T13:38:31.130Z,50.71
2018-11-12T13:41:04.703Z,51.82
2018-11-12T13:43:37.178Z,51.22
2018-11-12T13:46:08.887Z,51.62
2018-11-12T13:48:40.708Z,51.31
2018-11-12T13:51:12.256Z,50.89
2018-11-12T13:53:44.052Z,51.46
2018-11-12T13:56:15.889Z,51.49
2018-11-12T13:58:48.171Z,51.70
2018-11-12T14:01:19.814Z,51.88
2018-11-12T14:03:52.360Z,51.70
2018-11-12T14:06:24.159Z,51.47
2018-11-12T14:08:56.623Z,52.11
2018-11-12T14:11:29.290Z,51.66
2018-11-12T14:14:01.913Z,51.71
2018-11-12T14:16:33.958Z,52.61
2018-11-12T14:19:06.560Z,52.13
2018-11-12T14:21:38.544Z,51.48
2018-11-12T14:24:11.611Z,51.73
2018-11-12T14:26:43.529Z,51.42
2018-11-12T14:29:15.303Z,51.84
2018-11-12T14:31:47.159Z,52.10
2018-11-12T14:34:19.293Z,51.33
2018-11-12T14:36:51.642Z,51.79
2018-11-12T14:39:24.034Z,52.37
2018-11-12T14:41:56.398Z,51.66
2018-11-12T14:44:28.293Z,51.31
2018-11-12T14:47:00.110Z,51.48
2018-11-12T14:49:32.180Z,51.55
2018-11-12T14:52:04.028Z,51.54
2018-11-12T14:54:36.772Z,51.73
2018-11-12T14:57:08.837Z,51.80
2018-11-12T14:59:40.966Z,51.93
2018-11-12T15:02:12.830Z,52.30
2018-11-12T15:04:44.745Z,51.79
2018-11-12T15:07:16.662Z,52.08
2018-11-12T15:09:48.350Z,52.16
2018-11-12T15:12:20.965Z,52.55
2018-11-12T15:14:53.481Z,52.76
2018-11-12T15:17:26.224Z,52.13
2018-11-12T15:19:57.976Z,52.41
2018-11-12T15:22:29.715Z,53.01
2018-11-12T15:25:01.367Z,52.90
2018-11-12T15:27:34.411Z,52.88
2018-11-12T15:30:07.401Z,52.85
2018-11-12T15:32:39.172Z,53.69
2018-11-12T15:35:11.849Z,53.33
2018-11-12T15:37:44.138Z,53.47
2018-11-12T15:40:16.335Z,53.79
2018-11-12T15:42:48.383Z,53.51
2018-11-12T15:45:23.312Z,52.42
2018-11-12T15:47:55.271Z,52.79
2018-11-12T15:50:33.464Z,52.61
2018-11-12T15:53:05.058Z,53.00
2018-11-12T15:55:36.837Z,53.09
2018-11-12T15:58:08.632Z,53.32
2018-11-12T16:00:40.487Z,53.21
2018-11-12T16:03:11.987Z,53.29
2018-11-12T16:05:43.804Z,53.77
2018-11-12T16:08:15.395Z,53.91
2018-11-12T16:10:47.289Z,53.82
2018-11-12T16:13:20.360Z,53.53
2018-11-12T16:15:53.251Z,53.33
2018-11-12T16:18:25.828Z,54.07
2018-11-12T16:20:57.403Z,54.77
2018-11-12T16:23:29.259Z,53.90
2018-11-12T16:26:01.164Z,54.35
2018-11-12T16:30:59.405Z,54.99
2018-11-12T16:33:30.969Z,55.13
2018-11-12T16:36:02.706Z,54.89
2018-11-12T16:38:34.967Z,55.12
2018-11-12T16:41:06.645Z,55.94
2018-11-12T16:43:39.394Z,54.81
2018-11-12T16:46:11.569Z,54.98
2018-11-12T16:48:43.338Z,54.98
2018-11-12T16:51:14.670Z,54.90
2018-11-12T16:53:46.619Z,55.59
2018-11-12T16:56:18.269Z,54.90
2018-11-12T16:58:50.606Z,55.72
2018-11-12T17:01:22.258Z,56.36
2018-11-12T17:03:54.188Z,55.78
2018-11-12T17:06:25.801Z,56.46
2018-11-12T17:08:57.819Z,55.17
2018-11-12T17:11:29.329Z,55.76
2018-11-12T17:14:02.197Z,55.30
2018-11-12T17:16:34.254Z,53.85
2018-11-12T17:19:07.111Z,53.53
2018-11-12T17:21:39.069Z,54.13
2018-11-12T17:24:11.345Z,53.81
2018-11-12T17:26:42.897Z,54.33
2018-11-12T17:29:14.454Z,54.33
2018-11-12T17:31:46.127Z,54.70
2018-11-12T17:34:17.543Z,55.40
2018-11-12T17:36:49.252Z,54.89
2018-11-12T17:39:20.980Z,54.20
2018-11-12T17:41:52.436Z,53.75
2018-11-12T17:44:24.944Z,54.63
2018-11-12T17:46:56.738Z,54.37
2018-11-12T17:49:28.426Z,54.88
2018-11-12T17:52:00.329Z,55.33
2018-11-12T17:54:32.553Z,54.72
2018-11-12T17:57:04.529Z,55.84
2018-11-12T17:59:36.816Z,55.97
2018-11-12T18:04:30.399Z,54.92
2018-11-12T18:07:03.295Z,54.74
2018-11-12T18:09:35.399Z,55.24
2018-11-12T18:12:08.173Z,55.44
2018-11-12T18:14:40.319Z,54.35
2018-11-12T18:19:42.612Z,55.86
2018-11-12T18:22:14.817Z,55.69
2018-11-12T18:24:46.533Z,55.74
2018-11-12T18:27:18.085Z,55.18
2018-11-12T18:29:49.809Z,55.31
2018-11-12T18:32:21.632Z,55.06
2018-11-12T18:34:53.267Z,56.00
2018-11-12T18:37:24.846Z,55.78
2018-11-12T18:39:56.377Z,55.55
2018-11-12T18:42:27.860Z,56.80
2018-11-12T18:44:59.968Z,55.70
2018-11-12T18:47:31.560Z,56.16
2018-11-12T18:50:03.220Z,55.98
2018-11-12T18:52:34.707Z,55.74
2018-11-12T18:55:07.228Z,55.77
2018-11-12T18:57:39.404Z,56.15
2018-11-12T19:02:46.226Z,57.42
2018-11-12T19:05:21.595Z,57.18
2018-11-12T19:12:30.268Z,57.55
2018-11-12T19:15:02.602Z,57.10
2018-11-12T19:20:31.321Z,57.24
2018-11-12T19:23:02.920Z,57.81
2018-11-12T19:25:34.636Z,58.94
2018-11-12T19:28:06.356Z,58.21
2018-11-12T19:30:38.031Z,57.91
2018-11-12T19:35:35.506Z,57.83
2018-11-12T19:40:32.460Z,57.49
2018-11-12T19:43:04.149Z,57.54
2018-11-12T19:47:59.327Z,58.12
2018-11-12T19:50:31.518Z,58.71
2018-11-12T19:53:03.269Z,58.95
2018-11-12T19:55:34.979Z,59.03
2018-11-12T19:58:06.593Z,58.56
2018-11-12T20:00:38.266Z,58.52
2018-11-12T20:03:09.837Z,58.88
2018-11-12T20:05:41.334Z,59.70
2018-11-12T20:10:41.185Z,59.25
2018-11-12T20:13:12.695Z,58.04
2018-11-12T20:15:44.720Z,58.46
2018-11-12T20:18:16.477Z,58.78
2018-11-12T20:23:12.335Z,58.98
2018-11-12T20:25:43.778Z,59.30
2018-11-12T20:28:15.311Z,59.37
2018-11-12T20:30:46.807Z,60.66
2018-11-12T20:33:18.442Z,59.26
2018-11-12T20:37:19.498Z,60.56
2018-11-12T20:39:51.584Z,59.76
2018-11-12T20:44:38.181Z,59.37
2018-11-12T20:47:10.373Z,60.13
2018-11-12T20:49:41.885Z,60.16
2018-11-12T20:52:13.659Z,59.91
2018-11-12T20:54:46.229Z,59.95
2018-11-12T20:57:18.135Z,59.51
2018-11-12T20:59:49.720Z,60.22
2018-11-12T21:02:21.114Z,60.53
2018-11-12T21:07:52.832Z,60.70
2018-11-12T21:10:24.386Z,61.66
2018-11-12T21:12:55.930Z,59.85
2018-11-12T21:17:49.300Z,60.42
2018-11-12T21:20:24.499Z,59.90
2018-11-12T21:22:56.482Z,59.88
2018-11-12T21:27:51.618Z,60.42
2018-11-12T21:30:24.470Z,60.01
2018-11-12T21:32:56.341Z,60.95
2018-11-12T21:35:27.970Z,60.71
2018-11-12T21:38:00.003Z,60.24
2018-11-12T21:43:01.479Z,60.09
2018-11-12T21:45:33.584Z,60.53
2018-11-12T21:56:36.468Z,60.56
2018-11-12T21:59:08.499Z,60.59
2018-11-12T22:01:40.422Z,60.29
2018-11-12T22:06:47.018Z,60.33
2018-11-12T22:09:18.522Z,61.11
2018-11-12T22:11:50.310Z,61.12
2018-11-12T22:14:21.779Z,61.17
2018-11-12T22:16:53.430Z,60.14
2018-11-12T22:19:24.980Z,60.48
2018-11-12T22:21:56.590Z,60.00
2018-11-12T22:24:28.081Z,60.61
2018-11-12T22:27:01.205Z,61.11
2018-11-12T22:29:33.694Z,60.69
2018-11-12T22:32:05.512Z,59.84
2018-11-12T22:34:37.137Z,59.96
2018-11-12T22:37:08.739Z,59.82
2018-11-12T22:39:40.252Z,60.42
2018-11-12T22:42:11.987Z,60.91
2018-11-12T22:44:43.429Z,61.56
2018-11-12T22:47:14.996Z,61.21
2018-11-12T22:49:46.384Z,60.54
2018-11-12T22:52:18.123Z,59.83
2018-11-12T22:54:49.689Z,61.01
2018-11-12T22:57:21.516Z,61.78
2018-11-12T22:59:53.700Z,61.26
2018-11-12T23:02:25.461Z,61.59
2018-11-12T23:04:57.008Z,60.54
2018-11-12T23:07:28.554Z,60.48
2018-11-12T23:10:00.152Z,61.47
2018-11-12T23:12:31.814Z,61.52
2018-11-12T23:15:03.485Z,60.44
2018-11-12T23:17:35.325Z,60.77
2018-11-12T23:20:08.475Z,59.65
2018-11-12T23:22:40.702Z,59.76
2018-11-12T23:25:12.447Z,59.70
2018-11-12T23:27:45.075Z,60.66
2018-11-12T23:30:18.397Z,60.42
2018-11-12T23:32:50.623Z,59.47
2018-11-12T23:35:24.425Z,59.70
2018-11-12T23:37:56.382Z,59.28
2018-11-12T23:40:28.363Z,59.66
2018-11-12T23:43:00.436Z,58.67
2018-11-12T23:47:55.076Z,59.66
2018-11-12T23:50:26.792Z,59.95
2018-11-12T23:52:58.340Z,59.96
2018-11-12T23:55:29.964Z,58.97
2018-11-12T23:58:01.642Z,59.91
